createdAt,value
2022-09-03T00:02:34.179Z,98348.00
2022-09-03T00:05:40.633Z,98350.25
2022-09-03T00:08:46.809Z,98345.84
2022-09-03T00:11:52.788Z,98351.22
2022-09-03T00:14:56.290Z,98339.94
2022-09-03T00:18:00.704Z,98341.88
2022-09-03T00:21:11.925Z,98333.91
2022-09-03T00:24:15.521Z,98332.31
2022-09-03T00:27:20.804Z,98331.34
2022-09-03T00:30:24.662Z,98331.66
2022-09-03T00:33:28.258Z,98332.22
2022-09-03T00:36:34.063Z,98323.38
2022-09-03T00:39:36.156Z,98327.47
2022-09-03T00:42:46.014Z,98314.25
2022-09-03T00:45:54.136Z,98326.06
2022-09-03T00:49:07.307Z,98321.47
2022-09-03T00:52:14.090Z,98316.28
2022-09-03T00:55:22.748Z,98316.16
2022-09-03T00:58:33.854Z,98324.59
2022-09-03T01:01:40.196Z,98313.38
2022-09-03T01:04:51.860Z,98309.75
2022-09-03T01:07:59.001Z,98314.47
2022-09-03T01:11:10.225Z,98318.88
2022-09-03T01:14:17.517Z,98318.25
2022-09-03T01:17:24.051Z,98317.38
2022-09-03T01:20:47.429Z,98314.81
2022-09-03T01:23:58.272Z,98325.88
2022-09-03T01:27:11.127Z,98325.13
2022-09-03T01:30:18.160Z,98332.66
2022-09-03T01:33:23.156Z,98324.59
2022-09-03T01:36:29.156Z,98333.41
2022-09-03T01:39:38.560Z,98319.88
2022-09-03T01:42:49.501Z,98324.16
2022-09-03T01:46:00.705Z,98323.75
2022-09-03T01:49:07.194Z,98325.13
2022-09-03T01:52:12.345Z,98324.06
2022-09-03T01:55:24.150Z,98321.16
2022-09-03T01:58:29.518Z,98324.16
2022-09-03T02:01:33.998Z,98332.56
2022-09-03T02:04:38.305Z,98329.53
2022-09-03T02:07:40.965Z,98328.91
2022-09-03T02:10:44.459Z,98326.09
2022-09-03T02:13:48.831Z,98323.53
2022-09-03T02:16:51.961Z,98330.91
2022-09-03T02:19:53.898Z,98324.69
2022-09-03T02:22:56.403Z,98330.59
2022-09-03T02:25:58.879Z,98329.81
2022-09-03T02:29:01.814Z,98327.59
2022-09-03T02:32:05.327Z,98328.19
2022-09-03T02:35:07.769Z,98329.28
2022-09-03T02:38:10.462Z,98323.91
2022-09-03T02:41:15.498Z,98315.03
2022-09-03T02:44:24.156Z,98320.94
2022-09-03T02:47:31.493Z,98321.56
2022-09-03T02:50:41.105Z,98321.97
2022-09-03T02:53:42.913Z,98319.69
2022-09-03T02:56:45.447Z,98320.22
2022-09-03T02:59:47.612Z,98323.00
2022-09-03T03:02:51.004Z,98320.63
2022-09-03T03:05:53.778Z,98319.31
2022-09-03T03:08:56.030Z,98317.88
2022-09-03T03:11:57.616Z,98312.50
2022-09-03T03:14:59.346Z,98322.47
2022-09-03T03:18:05.015Z,98305.84
2022-09-03T03:21:07.311Z,98303.25
2022-09-03T03:24:09.154Z,98308.53
2022-09-03T03:27:11.417Z,98302.84
2022-09-03T03:30:13.586Z,98305.41
2022-09-03T03:33:16.725Z,98303.50
2022-09-03T03:36:18.790Z,98307.13
2022-09-03T03:39:21.282Z,98301.97
2022-09-03T03:42:24.373Z,98306.88
2022-09-03T03:45:26.252Z,98306.97
2022-09-03T03:48:29.466Z,98316.00
2022-09-03T03:51:31.001Z,98312.66
2022-09-03T03:54:32.900Z,98309.13
2022-09-03T03:57:34.590Z,98306.66
2022-09-03T04:00:38.417Z,98305.84
2022-09-03T04:03:42.215Z,98304.25
2022-09-03T04:06:44.056Z,98305.31
2022-09-03T04:09:49.644Z,98300.06
2022-09-03T04:12:54.429Z,98295.66
2022-09-03T04:16:00.370Z,98305.03
2022-09-03T04:19:03.381Z,98304.84
2022-09-03T04:22:04.959Z,98308.78
2022-09-03T04:25:06.810Z,98305.41
2022-09-03T04:28:08.897Z,98305.34
2022-09-03T04:31:14.447Z,98299.19
2022-09-03T04:34:17.882Z,98293.19
2022-09-03T04:37:20.381Z,98293.19
2022-09-03T04:40:22.190Z,98295.31
2022-09-03T04:43:23.957Z,98301.72
2022-09-03T04:46:28.633Z,98293.50
2022-09-03T04:49:31.991Z,98293.50
2022-09-03T04:52:33.949Z,98290.81
2022-09-03T04:55:36.062Z,98291.38
2022-09-03T04:58:37.993Z,98292.91
2022-09-03T05:01:40.786Z,98290.50
2022-09-03T05:04:43.966Z,98287.91
2022-09-03T05:07:45.815Z,98287.81
2022-09-03T05:10:47.362Z,98290.59
2022-09-03T05:13:50.364Z,98291.78
2022-09-03T05:16:52.570Z,98291.47
2022-09-03T05:19:56.475Z,98291.16
2022-09-03T05:23:01.352Z,98289.25
2022-09-03T05:26:11.025Z,98284.44
2022-09-03T05:29:13.083Z,98288.56
2022-09-03T05:32:16.456Z,98297.38
2022-09-03T05:35:27.116Z,98294.59
2022-09-03T05:38:32.346Z,98297.91
2022-09-03T05:41:35.921Z,98300.31
2022-09-03T05:44:38.627Z,98298.28
2022-09-03T05:47:40.306Z,98302.59
2022-09-03T05:50:43.304Z,98303.25
2022-09-03T05:53:46.040Z,98303.81
2022-09-03T05:56:47.687Z,98299.88
2022-09-03T05:59:49.488Z,98297.94
2022-09-03T06:02:51.808Z,98308.34
2022-09-03T06:05:54.983Z,98297.22
2022-09-03T06:08:58.238Z,98305.06
2022-09-03T06:12:00.127Z,98301.13
2022-09-03T06:15:06.138Z,98302.53
2022-09-03T06:18:07.765Z,98302.19
2022-09-03T06:21:10.951Z,98301.69
2022-09-03T06:24:15.665Z,98307.41
2022-09-03T06:27:21.424Z,98304.03
2022-09-03T06:30:24.237Z,98309.75
2022-09-03T06:33:25.845Z,98307.59
2022-09-03T06:36:28.870Z,98310.63
2022-09-03T06:39:30.941Z,98309.00
2022-09-03T06:42:32.798Z,98307.72
2022-09-03T06:45:34.718Z,98312.31
2022-09-03T06:48:37.128Z,98302.88
2022-09-03T06:51:40.592Z,98309.75
2022-09-03T06:54:42.272Z,98308.25
2022-09-03T06:57:44.154Z,98313.19
2022-09-03T07:00:52.136Z,98307.16
2022-09-03T07:03:57.716Z,98311.84
2022-09-03T07:07:01.037Z,98311.94
2022-09-03T07:10:02.718Z,98316.78
2022-09-03T07:13:07.074Z,98316.75
2022-09-03T07:16:10.917Z,98313.63
2022-09-03T07:19:13.743Z,98312.84
2022-09-03T07:22:19.931Z,98323.38
2022-09-03T07:25:22.024Z,98306.03
2022-09-03T07:28:24.990Z,98308.03
2022-09-03T07:31:28.674Z,98310.09
2022-09-03T07:34:30.485Z,98296.78
2022-09-03T07:37:33.917Z,98298.41
2022-09-03T07:40:35.841Z,98290.25
2022-09-03T07:43:40.160Z,98299.19
2022-09-03T07:46:42.151Z,98299.06
2022-09-03T07:49:45.202Z,98297.34
2022-09-03T07:52:56.080Z,98302.44
2022-09-03T07:56:01.308Z,98295.50
2022-09-03T07:59:03.434Z,98302.81
2022-09-03T08:02:06.524Z,98296.97
2022-09-03T08:05:11.403Z,98308.34
2022-09-03T08:08:15.539Z,98307.03
2022-09-03T08:11:19.874Z,98313.06
2022-09-03T08:14:23.890Z,98311.50
2022-09-03T08:17:25.546Z,98319.38
2022-09-03T08:20:27.874Z,98315.97
2022-09-03T08:23:30.945Z,98312.19
2022-09-03T08:26:33.939Z,98317.09
2022-09-03T08:29:35.546Z,98319.91
2022-09-03T08:32:37.143Z,98313.78
2022-09-03T08:35:42.500Z,98323.00
2022-09-03T08:38:46.479Z,98318.91
2022-09-03T08:42:02.689Z,98318.66
2022-09-03T08:45:08.222Z,98319.66
2022-09-03T08:48:13.823Z,98318.16
2022-09-03T08:51:17.700Z,98322.47
2022-09-03T08:54:22.256Z,98315.75
2022-09-03T08:57:25.607Z,98319.19
2022-09-03T09:00:29.942Z,98319.28
2022-09-03T09:03:37.252Z,98322.81
2022-09-03T09:06:46.158Z,98304.53
2022-09-03T09:09:51.149Z,98323.50
2022-09-03T09:12:59.191Z,98323.75
2022-09-03T09:16:06.233Z,98319.66
2022-09-03T09:19:14.838Z,98313.19
2022-09-03T09:22:24.540Z,98308.97
2022-09-03T09:25:27.641Z,98311.41
2022-09-03T09:28:32.395Z,98312.69
2022-09-03T09:31:34.278Z,98308.31
2022-09-03T09:34:37.520Z,98311.09
2022-09-03T09:37:46.970Z,98310.38
2022-09-03T09:40:50.075Z,98303.72
2022-09-03T09:44:00.070Z,98292.88
2022-09-03T09:47:13.129Z,98291.81
2022-09-03T09:50:24.945Z,98287.69
2022-09-03T09:53:30.684Z,98281.63
2022-09-03T09:56:33.775Z,98283.63
2022-09-03T09:59:35.775Z,98281.16
2022-09-03T10:02:40.617Z,98284.63
2022-09-03T10:05:44.143Z,98282.94
2022-09-03T10:08:46.387Z,98278.50
2022-09-03T10:11:58.969Z,98277.25
2022-09-03T10:15:03.882Z,98278.97
2022-09-03T10:18:09.971Z,98280.00
2022-09-03T10:21:12.492Z,98273.59
2022-09-03T10:24:39.854Z,98269.47
2022-09-03T10:27:45.365Z,98275.34
2022-09-03T10:31:03.777Z,98266.19
2022-09-03T10:34:10.416Z,98273.47
2022-09-03T10:37:19.764Z,98263.44
2022-09-03T10:40:31.025Z,98274.91
2022-09-03T10:43:46.232Z,98263.19
2022-09-03T10:46:57.434Z,98254.94
2022-09-03T10:50:03.614Z,98257.81
2022-09-03T10:53:11.076Z,98249.78
2022-09-03T10:56:15.192Z,98249.25
2022-09-03T10:59:37.025Z,98256.34
2022-09-03T11:02:56.642Z,98245.16
2022-09-03T11:06:04.762Z,98252.84
2022-09-03T11:09:12.532Z,98254.56
2022-09-03T11:12:21.584Z,98250.94
2022-09-03T11:15:27.943Z,98244.75
2022-09-03T11:21:33.031Z,98237.91
2022-09-03T11:24:41.008Z,98240.13
2022-09-03T11:27:56.419Z,98233.16
2022-09-03T11:31:13.909Z,98232.84
2022-09-03T11:34:22.163Z,98227.72
2022-09-03T11:37:26.343Z,98231.38
2022-09-03T11:40:33.853Z,98231.56
2022-09-03T11:43:36.241Z,98227.50
2022-09-03T11:46:40.429Z,98237.63
2022-09-03T11:49:45.949Z,98224.00
2022-09-03T11:52:48.470Z,98231.47
2022-09-03T11:55:55.259Z,98227.56
2022-09-03T11:59:02.711Z,98222.25
2022-09-03T12:02:13.361Z,98218.41
2022-09-03T12:05:19.752Z,98225.38
2022-09-03T12:08:54.611Z,98226.00
2022-09-03T12:12:06.174Z,98233.16
2022-09-03T12:15:11.459Z,98226.31
2022-09-03T12:18:22.701Z,98224.06
2022-09-03T12:21:25.630Z,98234.97
2022-09-03T12:24:34.690Z,98224.03
2022-09-03T12:27:39.105Z,98225.97
2022-09-03T12:30:40.772Z,98222.41
2022-09-03T12:33:46.433Z,98222.91
2022-09-03T12:36:50.084Z,98218.56
2022-09-03T12:40:08.824Z,98216.19
2022-09-03T12:46:38.968Z,98219.72
2022-09-03T12:49:43.293Z,98209.25
2022-09-03T12:52:46.509Z,98211.53
2022-09-03T12:55:51.062Z,98201.28
2022-09-03T12:58:56.182Z,98207.75
2022-09-03T13:02:00.634Z,98202.16
2022-09-03T13:05:04.330Z,98203.44
2022-09-03T13:08:08.451Z,98209.91
2022-09-03T13:11:10.577Z,98205.06
2022-09-03T13:14:17.737Z,98201.31
2022-09-03T13:17:27.300Z,98202.41
2022-09-03T13:20:34.503Z,98210.09
2022-09-03T13:23:40.509Z,98208.84
2022-09-03T13:26:46.220Z,98203.25
2022-09-03T13:30:05.554Z,98213.28
2022-09-03T13:33:11.988Z,98214.72
2022-09-03T13:36:17.055Z,98213.31
2022-09-03T13:39:24.693Z,98206.88
2022-09-03T13:42:33.977Z,98209.44
2022-09-03T13:45:37.799Z,98211.28
2022-09-03T13:48:59.680Z,98209.44
2022-09-03T13:52:04.243Z,98212.16
2022-09-03T13:55:09.645Z,98205.44
2022-09-03T13:58:18.825Z,98201.09
2022-09-03T14:01:25.832Z,98202.25
2022-09-03T14:04:32.229Z,98195.78
2022-09-03T14:07:52.989Z,98195.78
2022-09-03T14:10:58.507Z,98200.09
2022-09-03T14:14:08.913Z,98202.94
2022-09-03T14:17:13.436Z,98195.25
2022-09-03T14:20:19.749Z,98195.84
2022-09-03T14:23:29.330Z,98192.59
2022-09-03T14:26:39.072Z,98196.63
2022-09-03T14:29:50.590Z,98196.47
2022-09-03T14:32:57.184Z,98195.84
2022-09-03T14:36:12.526Z,98202.94
2022-09-03T14:39:34.879Z,98195.78
2022-09-03T14:42:45.509Z,98188.25
2022-09-03T14:46:03.575Z,98197.81
2022-09-03T14:49:16.029Z,98193.91
2022-09-03T14:52:25.399Z,98196.72
2022-09-03T14:55:35.578Z,98194.44
2022-09-03T14:58:48.700Z,98203.38
2022-09-03T15:01:54.559Z,98197.78
2022-09-03T15:05:09.586Z,98203.09
2022-09-03T15:08:18.249Z,98202.00
2022-09-03T15:11:22.943Z,98206.19
2022-09-03T15:14:30.292Z,98196.16
2022-09-03T15:17:42.771Z,98201.56
2022-09-03T15:20:49.023Z,98206.59
2022-09-03T15:23:57.975Z,98203.81
2022-09-03T15:27:11.204Z,98201.53
2022-09-03T15:30:15.649Z,98204.88
2022-09-03T15:33:22.301Z,98201.91
2022-09-03T15:36:26.024Z,98204.38
2022-09-03T15:39:30.961Z,98199.25
2022-09-03T15:42:32.802Z,98201.88
2022-09-03T15:45:37.947Z,98205.06
2022-09-03T15:48:46.801Z,98200.94
2022-09-03T15:51:56.240Z,98193.97
2022-09-03T15:55:02.526Z,98199.84
2022-09-03T15:58:09.936Z,98198.44
2022-09-03T16:01:27.203Z,98194.16
2022-09-03T16:04:44.355Z,98195.34
2022-09-03T16:07:56.433Z,98203.78
2022-09-03T16:11:03.014Z,98199.66
2022-09-03T16:14:11.771Z,98207.09
2022-09-03T16:17:21.429Z,98206.25
2022-09-03T16:20:25.877Z,98208.59
2022-09-03T16:23:30.509Z,98213.44
2022-09-03T16:26:36.058Z,98210.03
2022-09-03T16:29:37.946Z,98200.47
2022-09-03T16:32:53.046Z,98208.91
2022-09-03T16:35:59.745Z,98217.31
2022-09-03T16:39:03.732Z,98218.47
2022-09-03T16:42:12.041Z,98215.22
2022-09-03T16:45:23.343Z,98220.22
2022-09-03T16:48:32.864Z,98218.84
2022-09-03T16:51:39.607Z,98220.09
2022-09-03T16:54:57.278Z,98226.69
2022-09-03T16:58:09.814Z,98227.84
2022-09-03T17:01:18.526Z,98230.56
2022-09-03T17:04:32.706Z,98222.59
2022-09-03T17:07:57.779Z,98222.44
2022-09-03T17:11:07.346Z,98224.59
2022-09-03T17:14:19.650Z,98228.75
2022-09-03T17:17:27.764Z,98227.31
2022-09-03T17:20:47.182Z,98230.31
2022-09-03T17:24:04.744Z,98228.22
2022-09-03T17:27:13.328Z,98227.78
2022-09-03T17:30:26.523Z,98228.38
2022-09-03T17:33:46.462Z,98229.38
2022-09-03T17:36:55.706Z,98231.09
2022-09-03T17:40:04.965Z,98225.06
2022-09-03T17:43:11.957Z,98235.53
2022-09-03T17:46:22.575Z,98237.94
2022-09-03T17:49:26.456Z,98237.69
2022-09-03T17:52:32.566Z,98242.63
2022-09-03T17:55:36.049Z,98239.81
2022-09-03T17:58:41.320Z,98238.66
2022-09-03T18:01:48.424Z,98250.19
2022-09-03T18:04:53.901Z,98249.94
2022-09-03T18:08:00.736Z,98249.06
2022-09-03T18:11:07.169Z,98257.59
2022-09-03T18:14:20.225Z,98261.13
2022-09-03T18:17:31.748Z,98269.13
2022-09-03T18:21:21.949Z,98266.25
2022-09-03T18:24:50.964Z,98270.50
2022-09-03T18:28:19.672Z,98276.47
2022-09-03T18:31:42.012Z,98283.25
2022-09-03T18:35:02.524Z,98282.09
2022-09-03T18:38:23.090Z,98283.16
2022-09-03T18:42:01.478Z,98290.13
2022-09-03T18:45:33.263Z,98295.50
2022-09-03T18:49:07.641Z,98292.31
2022-09-03T18:52:34.329Z,98303.84
2022-09-03T18:56:04.070Z,98313.47
2022-09-03T18:59:33.622Z,98315.72
2022-09-03T19:03:01.960Z,98314.38
2022-09-03T19:06:29.689Z,98312.19
2022-09-03T19:09:59.151Z,98317.44
2022-09-03T19:13:31.042Z,98326.28
2022-09-03T19:17:02.151Z,98333.31
2022-09-03T19:20:28.478Z,98328.09
2022-09-03T19:23:48.867Z,98322.19
2022-09-03T19:27:46.095Z,98330.72
2022-09-03T19:31:03.451Z,98334.91
2022-09-03T19:34:27.820Z,98337.28
2022-09-03T19:37:53.611Z,98350.28
2022-09-03T19:41:18.908Z,98342.44
2022-09-03T19:44:52.916Z,98343.69
2022-09-03T19:48:20.571Z,98341.00
2022-09-03T19:51:44.433Z,98346.63
2022-09-03T19:55:09.084Z,98354.00
2022-09-03T19:58:42.594Z,98356.09
2022-09-03T20:02:04.704Z,98352.03
2022-09-03T20:05:26.333Z,98360.66
2022-09-03T20:08:46.927Z,98357.84
2022-09-03T20:11:50.247Z,98370.81
2022-09-03T20:14:52.393Z,98370.34
2022-09-03T20:18:02.494Z,98366.03
2022-09-03T20:21:10.038Z,98362.97
2022-09-03T20:24:19.737Z,98364.22
2022-09-03T20:27:30.780Z,98366.41
2022-09-03T20:30:35.824Z,98371.53
2022-09-03T20:33:47.630Z,98371.78
2022-09-03T20:36:59.194Z,98382.09
2022-09-03T20:40:08.843Z,98385.78
2022-09-03T20:43:33.754Z,98384.28
2022-09-03T20:46:45.975Z,98387.97
2022-09-03T20:49:53.381Z,98391.75
2022-09-03T20:53:02.211Z,98393.72
2022-09-03T20:56:10.818Z,98398.47
2022-09-03T20:59:17.621Z,98398.00
2022-09-03T21:02:26.023Z,98400.16
2022-09-03T21:05:31.305Z,98400.16
2022-09-03T21:08:48.816Z,98409.16
2022-09-03T21:11:53.698Z,98400.94
2022-09-03T21:15:01.395Z,98406.22
2022-09-03T21:18:06.765Z,98400.81
2022-09-03T21:21:15.322Z,98408.00
2022-09-03T21:24:19.580Z,98409.31
2022-09-03T21:27:24.130Z,98397.81
2022-09-03T21:30:28.488Z,98398.78
2022-09-03T21:33:31.988Z,98403.56
2022-09-03T21:36:38.672Z,98406.34
2022-09-03T21:39:42.580Z,98406.34
2022-09-03T21:42:46.642Z,98407.13
2022-09-03T21:45:53.963Z,98418.34
2022-09-03T21:48:58.498Z,98416.75
2022-09-03T21:52:04.752Z,98414.63
2022-09-03T21:55:12.847Z,98429.19
2022-09-03T21:58:21.238Z,98419.38
2022-09-03T22:01:32.656Z,98430.84
2022-09-03T22:04:34.542Z,98427.72
2022-09-03T22:07:44.186Z,98422.13
2022-09-03T22:10:52.107Z,98422.09
2022-09-03T22:13:59.130Z,98419.09
2022-09-03T22:17:10.877Z,98420.44
2022-09-03T22:20:14.736Z,98420.81
2022-09-03T22:23:21.203Z,98420.38
2022-09-03T22:26:27.070Z,98425.97
2022-09-03T22:29:36.024Z,98426.06
2022-09-03T22:32:44.305Z,98416.72
2022-09-03T22:35:54.201Z,98415.84
2022-09-03T22:39:03.131Z,98419.31
2022-09-03T22:42:12.962Z,98416.03
2022-09-03T22:45:29.302Z,98416.69
2022-09-03T22:48:54.108Z,98424.78
2022-09-03T22:52:06.043Z,98423.81
2022-09-03T22:55:13.331Z,98424.78
2022-09-03T22:58:20.625Z,98424.78
2022-09-03T23:01:25.126Z,98423.06
2022-09-03T23:04:30.214Z,98419.47
2022-09-03T23:07:36.469Z,98416.69
2022-09-03T23:10:44.815Z,98427.91
2022-09-03T23:13:48.968Z,98433.53
2022-09-03T23:16:55.670Z,98437.22
2022-09-03T23:19:59.798Z,98443.44
2022-09-03T23:23:08.729Z,98443.44
2022-09-03T23:26:13.719Z,98445.41
2022-09-03T23:29:19.514Z,98449.16
2022-09-03T23:32:21.405Z,98447.56
2022-09-03T23:35:26.642Z,98448.78
2022-09-03T23:38:39.292Z,98445.13
2022-09-03T23:41:47.188Z,98445.44
2022-09-03T23:44:57.187Z,98444.72
2022-09-03T23:48:05.141Z,98447.28
2022-09-03T23:51:12.830Z,98448.25
2022-09-03T23:54:37.728Z,98446.78
2022-09-03T23:57:40.280Z,98433.44
